createdAt,value
2023-04-15T00:01:37.280Z,62.99
2023-04-15T00:04:04.739Z,63.48
2023-04-15T00:06:31.306Z,63.06
2023-04-15T00:08:57.690Z,64.95
2023-04-15T00:11:24.511Z,65.85
2023-04-15T00:13:51.188Z,66.29
2023-04-15T00:16:17.699Z,66.25
2023-04-15T00:18:44.215Z,66.58
2023-04-15T00:21:10.610Z,67.10
2023-04-15T00:23:36.934Z,66.63
2023-04-15T00:26:03.353Z,65.61
2023-04-15T00:28:30.955Z,67.55
2023-04-15T00:30:57.548Z,66.52
2023-04-15T00:33:24.023Z,67.82
2023-04-15T00:35:50.907Z,66.84
2023-04-15T00:38:17.681Z,66.18
2023-04-15T00:40:44.371Z,66.34
2023-04-15T00:43:10.740Z,66.56
2023-04-15T00:45:37.289Z,67.82
2023-04-15T00:48:04.944Z,67.94
2023-04-15T00:50:31.268Z,70.01
2023-04-15T00:52:57.571Z,68.50
2023-04-15T00:55:23.880Z,67.90
2023-04-15T00:57:50.658Z,66.73
2023-04-15T01:00:17.013Z,67.79
2023-04-15T01:02:43.823Z,68.77
2023-04-15T01:05:10.348Z,68.44
2023-04-15T01:07:36.786Z,68.63
2023-04-15T01:10:04.600Z,68.20
2023-04-15T01:12:32.975Z,69.23
2023-04-15T01:14:59.647Z,68.14
2023-04-15T01:17:26.472Z,68.28
2023-04-15T01:19:52.972Z,68.05
2023-04-15T01:22:19.684Z,68.36
2023-04-15T01:25:06.215Z,68.76
2023-04-15T01:27:33.736Z,69.25
2023-04-15T01:30:00.071Z,69.69
2023-04-15T01:32:26.988Z,69.57
2023-04-15T01:34:53.401Z,69.94
2023-04-15T01:37:20.332Z,70.70
2023-04-15T01:39:46.690Z,70.97
2023-04-15T01:42:13.017Z,71.30
2023-04-15T01:44:39.351Z,71.50
2023-04-15T01:47:06.831Z,71.42
2023-04-15T01:49:33.209Z,71.41
2023-04-15T01:51:59.588Z,72.76
2023-04-15T01:54:27.384Z,72.73
2023-04-15T01:56:53.780Z,73.01
2023-04-15T01:59:20.127Z,74.40
2023-04-15T02:01:46.525Z,73.45
2023-04-15T02:04:18.856Z,73.69
2023-04-15T02:06:45.976Z,74.28
2023-04-15T02:09:12.400Z,73.92
2023-04-15T02:11:39.283Z,75.23
2023-04-15T02:14:06.354Z,74.90
2023-04-15T02:16:33.599Z,75.02
2023-04-15T02:19:00.622Z,76.26
2023-04-15T02:21:27.368Z,76.21
2023-04-15T02:23:57.131Z,75.80
2023-04-15T02:26:24.983Z,75.71
2023-04-15T02:28:51.383Z,75.64
2023-04-15T02:31:17.774Z,75.40
2023-04-15T02:33:44.312Z,75.58
2023-04-15T02:36:12.377Z,76.17
2023-04-15T02:38:40.714Z,77.57
2023-04-15T02:41:07.171Z,77.02
2023-04-15T02:43:33.549Z,77.70
2023-04-15T02:45:59.952Z,77.86
2023-04-15T02:48:26.972Z,77.46
2023-04-15T02:50:53.334Z,78.15
2023-04-15T02:53:19.974Z,78.69
2023-04-15T02:55:46.485Z,78.73
2023-04-15T02:58:12.821Z,78.20
2023-04-15T03:00:39.179Z,78.54
2023-04-15T03:03:06.748Z,79.72
2023-04-15T03:05:33.387Z,79.58
2023-04-15T03:08:01.193Z,79.71
2023-04-15T03:10:27.851Z,79.07
2023-04-15T03:12:54.216Z,79.65
2023-04-15T03:15:21.112Z,79.95
2023-04-15T03:17:49.443Z,79.71
2023-04-15T03:20:16.913Z,80.17
2023-04-15T03:22:43.428Z,79.92
2023-04-15T03:25:09.819Z,80.62
2023-04-15T03:27:36.653Z,80.45
2023-04-15T03:30:03.340Z,80.02
2023-04-15T03:32:29.748Z,79.98
2023-04-15T03:34:56.115Z,80.02
2023-04-15T03:37:22.454Z,79.23
2023-04-15T03:39:48.761Z,79.74
2023-04-15T03:42:15.562Z,80.00
2023-04-15T03:44:42.243Z,80.22
2023-04-15T03:47:08.649Z,80.19
2023-04-15T03:49:36.134Z,80.73
2023-04-15T03:52:02.655Z,80.23
2023-04-15T03:54:29.062Z,80.81
2023-04-15T03:56:55.928Z,81.13
2023-04-15T03:59:22.664Z,81.50
2023-04-15T04:01:49.634Z,81.30
2023-04-15T04:04:16.487Z,81.75
2023-04-15T04:06:42.866Z,82.12
2023-04-15T04:09:09.280Z,82.27
2023-04-15T04:11:35.748Z,82.19
2023-04-15T04:14:02.159Z,82.57
2023-04-15T04:16:28.769Z,82.58
2023-04-15T04:18:55.349Z,82.52
2023-04-15T04:21:21.805Z,82.60
2023-04-15T04:23:48.144Z,82.76
2023-04-15T04:26:14.499Z,83.32
2023-04-15T04:28:40.949Z,83.25
2023-04-15T04:31:07.675Z,83.55
2023-04-15T04:33:34.067Z,83.12
2023-04-15T04:36:00.459Z,83.76
2023-04-15T04:38:26.862Z,83.56
2023-04-15T04:40:53.195Z,83.94
2023-04-15T04:43:19.575Z,84.08
2023-04-15T04:45:45.960Z,84.89
2023-04-15T04:48:12.329Z,84.37
2023-04-15T04:50:39.025Z,84.54
2023-04-15T04:53:05.367Z,84.29
2023-04-15T04:55:32.282Z,84.36
2023-04-15T04:57:58.604Z,84.39
2023-04-15T05:00:25.253Z,84.55
2023-04-15T05:02:51.717Z,84.56
2023-04-15T05:05:18.164Z,84.74
2023-04-15T05:07:44.551Z,84.71
2023-04-15T05:10:11.452Z,85.09
2023-04-15T05:12:38.636Z,84.88
2023-04-15T05:15:06.483Z,84.97
2023-04-15T05:17:35.230Z,84.65
2023-04-15T05:20:02.903Z,84.79
2023-04-15T05:22:29.408Z,85.10
2023-04-15T05:24:56.024Z,84.98
2023-04-15T05:27:23.989Z,84.66
2023-04-15T05:29:50.547Z,84.47
2023-04-15T05:32:17.382Z,84.98
2023-04-15T05:34:43.829Z,84.53
2023-04-15T05:37:10.208Z,84.09
2023-04-15T05:39:36.775Z,84.41
2023-04-15T05:42:03.444Z,84.42
2023-04-15T05:44:29.967Z,84.11
2023-04-15T05:46:56.825Z,83.98
2023-04-15T05:49:23.268Z,83.64
2023-04-15T05:51:49.797Z,83.74
2023-04-15T05:54:17.362Z,84.43
2023-04-15T05:56:44.947Z,84.14
2023-04-15T05:59:11.558Z,84.55
2023-04-15T06:01:38.332Z,84.54
2023-04-15T06:04:04.890Z,84.00
2023-04-15T06:06:32.450Z,83.88
2023-04-15T06:08:58.823Z,84.05
2023-04-15T06:11:26.691Z,84.46
2023-04-15T06:13:53.083Z,83.74
2023-04-15T06:16:19.486Z,83.89
2023-04-15T06:18:45.895Z,83.28
2023-04-15T06:21:12.594Z,83.56
2023-04-15T06:23:41.302Z,82.15
2023-04-15T06:26:08.114Z,81.91
2023-04-15T06:28:34.591Z,81.37
2023-04-15T06:31:01.930Z,80.19
2023-04-15T06:33:28.540Z,79.04
2023-04-15T06:35:54.899Z,79.77
2023-04-15T06:38:21.424Z,79.78
2023-04-15T06:40:47.806Z,79.30
2023-04-15T06:43:14.177Z,79.17
2023-04-15T06:45:40.689Z,79.44
2023-04-15T06:48:07.160Z,79.57
2023-04-15T06:50:33.687Z,79.92
2023-04-15T06:53:00.028Z,79.11
2023-04-15T06:55:26.487Z,78.65
2023-04-15T06:57:52.793Z,78.10
2023-04-15T07:00:19.317Z,76.73
2023-04-15T07:02:46.690Z,77.00
2023-04-15T07:05:13.297Z,76.06
2023-04-15T07:07:39.676Z,75.06
2023-04-15T07:10:06.787Z,75.15
2023-04-15T07:12:33.242Z,74.81
2023-04-15T07:14:59.590Z,74.54
2023-04-15T07:17:26.403Z,74.75
2023-04-15T07:19:52.759Z,75.16
2023-04-15T07:22:19.129Z,74.99
2023-04-15T07:24:46.638Z,75.68
2023-04-15T07:27:12.927Z,75.68
2023-04-15T07:29:39.378Z,74.89
2023-04-15T07:32:05.883Z,73.25
2023-04-15T07:34:32.773Z,72.29
2023-04-15T07:36:59.275Z,69.70
2023-04-15T07:39:25.816Z,67.21
2023-04-15T07:41:52.215Z,66.74
2023-04-15T07:44:18.628Z,64.42
2023-04-15T07:46:44.945Z,64.99
2023-04-15T07:49:11.262Z,63.22
2023-04-15T07:51:38.405Z,62.31
2023-04-15T07:54:04.743Z,63.71
2023-04-15T07:56:31.157Z,61.60
2023-04-15T07:58:57.597Z,60.75
2023-04-15T08:01:24.016Z,63.38
2023-04-15T08:03:51.025Z,62.25
2023-04-15T08:06:17.693Z,62.14
2023-04-15T08:08:44.192Z,61.22
2023-04-15T08:11:10.769Z,62.25
2023-04-15T08:13:37.073Z,62.99
2023-04-15T08:16:22.446Z,62.40
2023-04-15T08:18:50.171Z,60.38
2023-04-15T08:21:17.720Z,59.90
2023-04-15T08:23:45.441Z,58.74
2023-04-15T08:26:12.822Z,58.45
2023-04-15T08:28:41.529Z,58.45
2023-04-15T08:31:08.694Z,57.95
2023-04-15T08:33:35.012Z,61.19
2023-04-15T08:36:01.399Z,59.82
2023-04-15T08:38:27.768Z,58.14
2023-04-15T08:40:56.422Z,57.46
2023-04-15T08:43:26.408Z,56.79
2023-04-15T08:45:53.155Z,58.57
2023-04-15T08:48:20.076Z,58.67
2023-04-15T08:50:47.838Z,57.65
2023-04-15T08:53:15.450Z,58.56
2023-04-15T08:55:46.056Z,57.18
2023-04-15T08:58:13.546Z,56.15
2023-04-15T09:00:40.586Z,57.07
2023-04-15T09:03:08.772Z,56.45
2023-04-15T09:05:36.484Z,57.45
2023-04-15T09:08:03.038Z,55.50
2023-04-15T09:10:29.813Z,56.63
2023-04-15T09:12:57.096Z,55.64
2023-04-15T09:15:32.324Z,56.16
2023-04-15T09:17:58.802Z,55.94
2023-04-15T09:20:25.241Z,56.56
2023-04-15T09:22:52.284Z,56.04
2023-04-15T09:25:21.678Z,55.30
2023-04-15T09:27:49.316Z,55.00
2023-04-15T09:30:16.905Z,55.30
2023-04-15T09:33:10.790Z,56.47
2023-04-15T09:35:37.226Z,55.63
2023-04-15T09:38:06.226Z,55.80
2023-04-15T09:40:42.205Z,56.91
2023-04-15T09:43:10.680Z,56.07
2023-04-15T09:45:37.189Z,56.09
2023-04-15T09:48:30.947Z,57.65
2023-04-15T09:51:01.344Z,55.31
2023-04-15T09:53:30.473Z,55.67
2023-04-15T09:56:00.728Z,54.79
2023-04-15T09:58:28.991Z,55.64
2023-04-15T10:00:57.126Z,55.52
2023-04-15T10:03:26.639Z,55.43
2023-04-15T10:05:55.827Z,55.08
2023-04-15T10:08:24.910Z,53.55
2023-04-15T10:10:52.348Z,53.61
2023-04-15T10:13:20.676Z,52.56
2023-04-15T10:15:56.017Z,53.30
2023-04-15T10:18:25.344Z,53.74
2023-04-15T10:20:52.838Z,52.38
2023-04-15T10:23:20.674Z,51.84
2023-04-15T10:25:48.834Z,51.09
2023-04-15T10:28:17.124Z,52.26
2023-04-15T10:30:43.957Z,52.45
2023-04-15T10:33:11.238Z,50.46
2023-04-15T10:35:39.233Z,49.83
2023-04-15T10:38:43.485Z,50.36
2023-04-15T10:41:25.123Z,49.93
2023-04-15T10:43:56.120Z,50.15
2023-04-15T10:46:24.600Z,51.76
2023-04-15T10:48:52.748Z,52.25
2023-04-15T10:51:32.131Z,53.09
2023-04-15T10:54:01.739Z,52.86
2023-04-15T10:56:30.280Z,51.92
2023-04-15T10:58:59.158Z,51.50
2023-04-15T11:01:52.092Z,52.03
2023-04-15T11:04:52.936Z,52.85
2023-04-15T11:07:39.243Z,52.46
2023-04-15T11:10:17.623Z,51.26
2023-04-15T11:13:26.689Z,51.88
2023-04-15T11:15:58.360Z,51.77
2023-04-15T11:18:28.018Z,52.57
2023-04-15T11:20:57.351Z,53.74
2023-04-15T11:23:35.279Z,52.72
2023-04-15T11:26:05.450Z,51.58
2023-04-15T11:28:33.279Z,51.25
2023-04-15T11:31:06.625Z,52.81
2023-04-15T11:33:32.952Z,52.29
2023-04-15T11:35:59.389Z,52.59
2023-04-15T11:38:25.808Z,51.85
2023-04-15T11:40:52.599Z,51.62
2023-04-15T11:43:23.244Z,53.59
2023-04-15T11:45:53.438Z,51.84
2023-04-15T11:48:22.170Z,48.41
2023-04-15T11:50:57.046Z,47.08
2023-04-15T11:53:24.175Z,49.27
2023-04-15T11:55:52.701Z,48.44
2023-04-15T11:58:22.357Z,47.56
2023-04-15T12:00:59.964Z,49.21
2023-04-15T12:03:49.044Z,48.90
2023-04-15T12:06:21.367Z,50.73
2023-04-15T12:08:58.996Z,48.12
2023-04-15T12:11:48.252Z,48.50
2023-04-15T12:14:21.611Z,48.56
2023-04-15T12:16:51.870Z,46.98
2023-04-15T12:19:29.937Z,46.34
2023-04-15T12:22:05.398Z,47.41
2023-04-15T12:24:33.282Z,47.01
2023-04-15T12:27:07.795Z,49.21
2023-04-15T12:29:36.004Z,49.22
2023-04-15T12:32:12.459Z,50.05
2023-04-15T12:34:44.807Z,51.42
2023-04-15T12:37:14.105Z,50.88
2023-04-15T12:39:45.011Z,52.81
2023-04-15T12:42:12.329Z,48.72
2023-04-15T12:44:39.389Z,49.66
2023-04-15T12:47:07.084Z,51.53
2023-04-15T12:49:33.815Z,52.21
2023-04-15T12:52:01.611Z,52.07
2023-04-15T12:54:29.568Z,53.35
2023-04-15T12:56:56.417Z,54.56
2023-04-15T12:59:24.337Z,54.46
2023-04-15T13:01:52.199Z,52.88
2023-04-15T13:04:20.120Z,52.23
2023-04-15T13:06:46.768Z,53.21
2023-04-15T13:09:13.132Z,54.85
2023-04-15T13:11:39.564Z,56.23
2023-04-15T13:14:08.454Z,57.28
2023-04-15T13:16:35.336Z,56.66
2023-04-15T13:19:03.523Z,57.86
2023-04-15T13:21:31.255Z,58.91
2023-04-15T13:23:57.722Z,59.26
2023-04-15T13:26:24.181Z,60.09
2023-04-15T13:28:50.493Z,60.14
2023-04-15T13:31:17.088Z,60.80
2023-04-15T13:33:43.481Z,60.54
2023-04-15T13:36:09.887Z,60.43
2023-04-15T13:38:36.418Z,60.41
2023-04-15T13:41:02.730Z,60.91
2023-04-15T13:43:29.160Z,60.19
2023-04-15T13:45:55.994Z,59.29
2023-04-15T13:48:22.431Z,59.08
2023-04-15T13:50:48.791Z,60.00
2023-04-15T13:53:15.172Z,60.93
2023-04-15T13:55:42.702Z,60.37
2023-04-15T13:58:09.908Z,60.13
2023-04-15T14:00:36.392Z,60.59
2023-04-15T14:03:02.940Z,60.24
2023-04-15T14:05:29.500Z,59.05
2023-04-15T14:07:55.921Z,59.98
2023-04-15T14:10:22.313Z,60.60
2023-04-15T14:12:48.648Z,61.71
2023-04-15T14:15:16.203Z,61.81
2023-04-15T14:17:42.944Z,63.10
2023-04-15T14:20:09.990Z,64.32
2023-04-15T14:22:36.415Z,65.16
2023-04-15T14:25:02.854Z,65.07
2023-04-15T14:27:29.294Z,65.84
2023-04-15T14:29:55.692Z,66.49
2023-04-15T14:32:22.060Z,65.35
2023-04-15T14:34:48.437Z,64.88
2023-04-15T14:37:14.821Z,65.30
2023-04-15T14:39:41.258Z,65.65
2023-04-15T14:42:07.691Z,65.95
2023-04-15T14:44:34.145Z,64.20
2023-04-15T14:47:00.696Z,63.52
2023-04-15T14:49:27.137Z,63.14
2023-04-15T14:51:53.531Z,64.09
2023-04-15T14:54:21.912Z,63.16
2023-04-15T14:56:48.676Z,64.77
2023-04-15T14:59:15.275Z,65.87
2023-04-15T15:01:41.882Z,65.55
2023-04-15T15:04:10.317Z,66.29
2023-04-15T15:06:36.829Z,66.44
2023-04-15T15:09:03.385Z,65.53
2023-04-15T15:11:30.302Z,65.61
2023-04-15T15:13:57.050Z,65.77
2023-04-15T15:16:23.630Z,65.73
2023-04-15T15:18:51.342Z,66.60
2023-04-15T15:21:17.960Z,67.77
2023-04-15T15:23:44.868Z,68.77
2023-04-15T15:26:12.087Z,68.10
2023-04-15T15:28:38.510Z,68.07
2023-04-15T15:31:05.538Z,67.75
2023-04-15T15:33:32.723Z,68.03
2023-04-15T15:35:59.256Z,68.98
2023-04-15T15:38:26.238Z,69.62
2023-04-15T15:40:52.640Z,70.13
2023-04-15T15:43:18.999Z,70.54
2023-04-15T15:45:45.635Z,71.40
2023-04-15T15:48:12.003Z,70.38
2023-04-15T15:50:38.384Z,71.09
2023-04-15T15:53:04.917Z,70.79
2023-04-15T15:55:31.292Z,70.62
2023-04-15T15:57:57.632Z,70.77
2023-04-15T16:00:24.118Z,71.23
2023-04-15T16:03:05.742Z,71.17
2023-04-15T16:05:33.416Z,70.79
2023-04-15T16:07:59.841Z,71.79
2023-04-15T16:10:26.396Z,72.66
2023-04-15T16:12:52.762Z,72.58
2023-04-15T16:15:19.170Z,73.13
2023-04-15T16:17:45.795Z,73.07
2023-04-15T16:20:12.157Z,72.66
2023-04-15T16:22:38.864Z,73.43
2023-04-15T16:25:05.589Z,73.32
2023-04-15T16:27:32.232Z,73.26
2023-04-15T16:29:58.636Z,73.34
2023-04-15T16:32:26.601Z,73.56
2023-04-15T16:34:53.132Z,73.37
2023-04-15T16:37:20.701Z,73.12
2023-04-15T16:39:47.455Z,73.19
2023-04-15T16:42:13.863Z,73.43
2023-04-15T16:44:40.269Z,74.06
2023-04-15T16:47:08.838Z,73.59
2023-04-15T16:49:35.482Z,73.37
2023-04-15T16:52:02.398Z,73.63
2023-04-15T16:54:29.706Z,73.45
2023-04-15T16:56:58.486Z,73.83
2023-04-15T16:59:25.830Z,73.71
2023-04-15T17:01:52.270Z,73.52
2023-04-15T17:04:18.849Z,73.89
2023-04-15T17:06:45.698Z,74.12
2023-04-15T17:09:12.036Z,74.34
2023-04-15T17:11:40.528Z,74.26
2023-04-15T17:14:07.368Z,74.44
2023-04-15T17:16:33.790Z,74.57
2023-04-15T17:19:00.503Z,74.53
2023-04-15T17:21:27.349Z,74.38
2023-04-15T17:23:54.161Z,74.41
2023-04-15T17:26:20.734Z,75.08
2023-04-15T17:28:47.100Z,74.48
2023-04-15T17:31:13.594Z,74.75
2023-04-15T17:33:59.994Z,75.04
2023-04-15T17:36:27.096Z,74.94
2023-04-15T17:38:56.181Z,75.73
2023-04-15T17:41:23.064Z,75.63
2023-04-15T17:43:49.493Z,75.04
2023-04-15T17:46:15.942Z,75.74
2023-04-15T17:48:42.353Z,75.45
2023-04-15T17:51:08.695Z,75.83
2023-04-15T17:53:35.061Z,75.50
2023-04-15T17:56:01.380Z,75.23
2023-04-15T17:58:28.363Z,75.58
2023-04-15T18:00:54.769Z,75.47
2023-04-15T18:03:22.091Z,76.35
2023-04-15T18:05:48.651Z,77.01
2023-04-15T18:08:15.021Z,76.67
2023-04-15T18:10:41.319Z,76.31
2023-04-15T18:13:07.701Z,76.79
2023-04-15T18:15:34.685Z,76.08
2023-04-15T18:18:01.472Z,76.21
2023-04-15T18:20:29.047Z,75.86
2023-04-15T18:22:55.682Z,76.11
2023-04-15T18:25:21.992Z,75.48
2023-04-15T18:27:48.323Z,75.91
2023-04-15T18:30:14.677Z,76.36
2023-04-15T18:32:41.440Z,76.54
2023-04-15T18:35:08.363Z,76.67
2023-04-15T18:37:35.276Z,76.83
2023-04-15T18:40:01.698Z,77.02
2023-04-15T18:42:28.123Z,77.34
2023-04-15T18:44:54.666Z,77.72
2023-04-15T18:47:21.195Z,77.97
2023-04-15T18:49:47.686Z,78.68
2023-04-15T18:52:14.003Z,79.27
2023-04-15T18:54:40.409Z,78.98
2023-04-15T18:57:06.843Z,80.35
2023-04-15T18:59:33.671Z,79.84
2023-04-15T19:02:00.455Z,81.19
2023-04-15T19:04:28.805Z,80.99
2023-04-15T19:06:55.941Z,80.87
2023-04-15T19:09:22.374Z,81.40
2023-04-15T19:11:48.818Z,80.14
2023-04-15T19:14:15.168Z,81.00
2023-04-15T19:16:41.534Z,80.88
2023-04-15T19:19:07.972Z,81.38
2023-04-15T19:21:34.464Z,81.51
2023-04-15T19:24:01.196Z,81.66
2023-04-15T19:26:27.569Z,81.66
2023-04-15T19:28:54.578Z,82.31
2023-04-15T19:31:21.084Z,81.57
2023-04-15T19:33:47.510Z,82.16
2023-04-15T19:36:13.862Z,82.47
2023-04-15T19:38:40.460Z,81.97
2023-04-15T19:41:06.774Z,82.16
2023-04-15T19:43:33.268Z,82.81
2023-04-15T19:45:59.735Z,82.32
2023-04-15T19:48:26.268Z,82.05
2023-04-15T19:50:52.722Z,82.11
2023-04-15T19:53:19.097Z,82.36
2023-04-15T19:55:47.094Z,82.51
2023-04-15T19:58:13.493Z,81.64
2023-04-15T20:00:39.877Z,82.22
2023-04-15T20:03:06.452Z,81.59
2023-04-15T20:05:32.983Z,81.77
2023-04-15T20:08:00.871Z,81.83
2023-04-15T20:10:27.491Z,82.19
2023-04-15T20:12:53.887Z,81.90
2023-04-15T20:15:21.481Z,81.69
2023-04-15T20:17:47.895Z,82.36
2023-04-15T20:20:14.373Z,81.99
2023-04-15T20:22:41.444Z,82.37
2023-04-15T20:25:08.021Z,82.49
2023-04-15T20:27:34.346Z,82.18
2023-04-15T20:30:00.864Z,82.09
2023-04-15T20:32:28.120Z,82.69
2023-04-15T20:34:54.820Z,81.85
2023-04-15T20:37:21.355Z,81.94
2023-04-15T20:39:47.750Z,82.48
2023-04-15T20:42:14.105Z,82.32
2023-04-15T20:44:40.570Z,82.96
2023-04-15T20:47:07.331Z,83.13
2023-04-15T20:49:37.778Z,82.83
2023-04-15T20:52:05.446Z,83.07
2023-04-15T20:54:31.868Z,83.54
2023-04-15T20:56:58.294Z,83.52
2023-04-15T20:59:25.150Z,83.66
2023-04-15T21:01:51.557Z,83.72
2023-04-15T21:04:18.078Z,83.74
2023-04-15T21:06:44.627Z,84.43
2023-04-15T21:09:11.037Z,84.68
2023-04-15T21:14:08.112Z,84.46
2023-04-15T21:16:34.772Z,84.47
2023-04-15T21:19:01.253Z,84.50
2023-04-15T21:21:28.000Z,84.70
2023-04-15T21:23:54.357Z,85.27
2023-04-15T21:26:20.717Z,84.88
2023-04-15T21:28:47.107Z,86.00
2023-04-15T21:31:13.519Z,86.17
2023-04-15T21:33:39.884Z,86.33
2023-04-15T21:36:06.639Z,86.51
2023-04-15T21:38:33.883Z,87.05
2023-04-15T21:41:01.140Z,86.45
2023-04-15T21:43:27.641Z,86.08
2023-04-15T21:46:23.229Z,86.90
2023-04-15T21:48:40.419Z,86.73
2023-04-15T21:51:07.484Z,86.48
2023-04-15T21:53:33.868Z,87.30
2023-04-15T21:56:00.370Z,86.64
2023-04-15T21:58:26.739Z,86.73
2023-04-15T22:00:57.388Z,86.89
2023-04-15T22:03:24.419Z,86.83
2023-04-15T22:05:51.082Z,87.26
2023-04-15T22:08:17.454Z,87.06
2023-04-15T22:10:44.081Z,87.00
2023-04-15T22:13:11.333Z,86.89
2023-04-15T22:15:37.751Z,86.76
2023-04-15T22:18:04.597Z,86.98
2023-04-15T22:20:31.199Z,87.78
2023-04-15T22:22:57.956Z,87.51
2023-04-15T22:25:24.370Z,87.18
2023-04-15T22:27:50.868Z,88.10
2023-04-15T22:30:17.283Z,87.20
2023-04-15T22:32:43.637Z,87.89
2023-04-15T22:35:10.053Z,87.58
2023-04-15T22:37:36.439Z,87.77
2023-04-15T22:40:03.199Z,88.22
2023-04-15T22:42:29.557Z,87.73
2023-04-15T22:44:56.055Z,88.24
2023-04-15T22:47:22.452Z,88.13
2023-04-15T22:49:48.800Z,88.48
2023-04-15T22:52:29.511Z,88.60
2023-04-15T22:54:57.045Z,88.84
2023-04-15T22:57:23.537Z,89.34
2023-04-15T22:59:50.011Z,89.46
2023-04-15T23:02:16.537Z,89.60
2023-04-15T23:04:43.055Z,88.88
2023-04-15T23:07:09.453Z,89.60
2023-04-15T23:09:35.882Z,89.84
2023-04-15T23:12:02.937Z,90.06
2023-04-15T23:14:30.038Z,90.63
2023-04-15T23:16:57.569Z,90.24
2023-04-15T23:19:24.093Z,90.68
2023-04-15T23:21:50.936Z,90.97
2023-04-15T23:24:17.280Z,91.11
2023-04-15T23:26:43.728Z,91.18
2023-04-15T23:29:10.374Z,90.53
2023-04-15T23:31:36.992Z,91.41
2023-04-15T23:34:03.545Z,91.31
2023-04-15T23:36:29.894Z,91.46
2023-04-15T23:38:56.264Z,91.55
2023-04-15T23:41:22.679Z,91.79
2023-04-15T23:43:49.778Z,91.18
2023-04-15T23:46:16.862Z,91.55
2023-04-15T23:48:43.386Z,92.00
2023-04-15T23:51:09.789Z,91.43
2023-04-15T23:53:36.229Z,91.86
2023-04-15T23:56:02.797Z,91.69
2023-04-15T23:58:29.187Z,91.82
